createdAt,value
2022-12-24T00:02:12.677Z,39.76204
2022-12-24T00:07:13.713Z,39.82589
2022-12-24T00:12:14.909Z,39.61099
2022-12-24T00:17:16.253Z,39.55876
2022-12-24T00:22:17.292Z,39.42534
2022-12-24T00:27:23.225Z,39.68089
2022-12-24T00:32:24.236Z,39.88982
2022-12-24T00:37:25.175Z,39.89561
2022-12-24T00:42:26.195Z,39.68086
2022-12-24T00:47:27.116Z,39.55889
2022-12-24T00:52:27.992Z,39.66346
2022-12-24T00:57:28.945Z,39.65764
2022-12-24T01:02:30.146Z,39.64605
2022-12-24T01:07:31.170Z,39.60537
2022-12-24T01:12:32.058Z,39.60538
2022-12-24T01:17:32.968Z,39.67502
2022-12-24T01:22:33.870Z,39.66931
2022-12-24T01:27:34.820Z,39.7157
2022-12-24T01:32:35.757Z,39.59954
2022-12-24T01:37:36.728Z,39.54135
2022-12-24T01:42:37.681Z,39.46579
2022-12-24T01:47:38.662Z,39.43671
2022-12-24T01:52:39.601Z,39.26245
2022-12-24T01:57:40.578Z,39.33233
2022-12-24T02:02:41.748Z,39.39613
2022-12-24T02:07:42.810Z,39.34956
2022-12-24T02:12:43.759Z,39.22772
2022-12-24T02:17:44.771Z,39.3787
2022-12-24T02:22:45.756Z,39.2452
2022-12-24T02:27:46.697Z,39.30898
2022-12-24T02:32:47.688Z,39.13459
2022-12-24T02:37:48.608Z,39.16965
2022-12-24T02:42:49.601Z,39.18706
2022-12-24T02:47:50.630Z,39.22191
2022-12-24T02:52:51.561Z,39.23351
2022-12-24T02:57:52.446Z,39.32654
2022-12-24T03:02:54.189Z,39.13476
2022-12-24T03:07:55.130Z,39.23345
2022-12-24T03:12:56.042Z,39.03019
2022-12-24T03:17:56.982Z,39.18131
2022-12-24T03:22:57.920Z,39.28584
2022-12-24T03:27:58.851Z,39.23338
2022-12-24T03:32:59.784Z,39.10551
2022-12-24T03:38:00.724Z,38.94295
2022-12-24T03:43:01.639Z,38.97784
2022-12-24T03:48:02.581Z,38.83282
2022-12-24T03:53:03.531Z,39.04198
2022-12-24T03:58:04.478Z,39.01862
2022-12-24T04:03:05.448Z,39.05352
2022-12-24T04:08:06.498Z,39.03022
2022-12-24T04:13:07.420Z,38.94281
2022-12-24T04:18:08.379Z,38.83803
2022-12-24T04:23:09.331Z,38.70465
2022-12-24T04:28:10.383Z,38.76279
2022-12-24T04:33:11.318Z,38.69904
2022-12-24T04:38:12.488Z,38.71654
2022-12-24T04:43:13.849Z,38.72814
2022-12-24T04:48:14.866Z,38.81533
2022-12-24T04:53:15.780Z,38.75143
2022-12-24T04:58:16.792Z,38.72834
2022-12-24T05:03:17.890Z,38.77462
2022-12-24T05:08:18.795Z,38.63508
2022-12-24T05:13:19.760Z,38.56515
2022-12-24T05:18:20.681Z,38.48966
2022-12-24T05:23:21.615Z,38.47223
2022-12-24T05:28:22.543Z,38.39089
2022-12-24T05:33:23.454Z,38.45487
2022-12-24T05:38:24.409Z,38.40263
2022-12-24T05:43:25.322Z,38.39103
2022-12-24T05:48:26.293Z,38.32143
2022-12-24T05:53:27.229Z,38.39669
2022-12-24T05:58:28.155Z,38.38508
2022-12-24T06:03:29.131Z,38.25753
2022-12-24T06:08:30.142Z,38.44353
2022-12-24T06:13:31.075Z,38.48387
2022-12-24T06:18:32.046Z,38.37939
2022-12-24T06:23:32.949Z,38.51384
2022-12-24T06:28:33.845Z,38.51363
2022-12-24T06:33:34.790Z,38.60078
2022-12-24T06:38:35.788Z,38.67629
2022-12-24T06:43:36.718Z,38.53068
2022-12-24T06:48:37.659Z,38.43738
2022-12-24T06:53:38.659Z,38.50756
2022-12-24T06:58:39.651Z,38.54236
2022-12-24T07:03:40.701Z,38.55379
2022-12-24T07:08:41.654Z,38.44329
2022-12-24T07:13:42.546Z,38.44903
2022-12-24T07:18:43.450Z,38.86255
2022-12-24T07:23:44.459Z,38.84487
2022-12-24T07:28:45.415Z,38.6586
2022-12-24T07:33:46.330Z,38.66424
2022-12-24T07:38:47.284Z,38.53615
2022-12-24T07:43:48.280Z,38.35004
2022-12-24T07:48:49.220Z,38.40235
2022-12-24T07:53:50.161Z,38.58281
2022-12-24T07:58:51.145Z,38.59423
2022-12-24T08:03:52.288Z,38.51847
2022-12-24T08:08:53.389Z,38.43118
2022-12-24T08:13:54.348Z,38.37283
2022-12-24T08:18:55.296Z,38.46611
2022-12-24T08:23:56.225Z,38.64657
2022-12-24T08:28:57.184Z,38.55906
2022-12-24T08:33:58.143Z,38.55307
2022-12-24T08:38:59.085Z,38.49494
2022-12-24T08:44:00.036Z,38.45423
2022-12-24T08:49:01.112Z,38.55312
2022-12-24T08:54:02.091Z,38.53572
2022-12-24T08:59:03.097Z,38.66345
2022-12-24T09:04:04.061Z,38.56439
2022-12-24T09:09:05.136Z,38.55241
2022-12-24T09:14:06.121Z,38.41879
2022-12-24T09:19:07.160Z,38.52953
2022-12-24T09:24:08.116Z,38.58167
2022-12-24T09:29:09.120Z,38.79074
2022-12-24T09:34:10.115Z,38.33683
2022-12-24T09:39:11.051Z,38.56333
2022-12-24T09:44:12.015Z,38.33616
2022-12-24T09:49:13.232Z,38.39441
2022-12-24T09:54:14.329Z,38.44068
2022-12-24T09:59:15.305Z,38.37606
2022-12-24T10:04:16.254Z,38.26519
2022-12-24T10:09:17.219Z,38.25359
2022-12-24T10:14:18.160Z,38.30623
2022-12-24T10:19:19.096Z,38.4286
2022-12-24T10:24:20.103Z,38.4868
2022-12-24T10:29:21.037Z,38.8131
2022-12-24T10:34:21.950Z,39.15635
2022-12-24T10:39:23.131Z,39.17349
2022-12-24T10:44:24.047Z,39.30149
2022-12-24T10:49:24.955Z,39.54002
2022-12-24T10:54:27.038Z,39.54561
2022-12-24T10:59:28.694Z,39.34722
2022-12-24T11:04:29.682Z,39.47512
2022-12-24T11:09:30.609Z,39.54506
2022-12-24T11:14:31.552Z,39.67326
2022-12-24T11:19:32.736Z,39.60917
2022-12-24T11:24:33.638Z,39.80133
2022-12-24T11:29:34.592Z,39.76641
2022-12-24T11:34:35.574Z,39.81889
2022-12-24T11:39:36.541Z,39.70798
2022-12-24T11:44:37.456Z,39.64933
2022-12-24T11:49:38.455Z,39.4389
2022-12-24T11:54:39.559Z,39.16467
2022-12-24T11:59:40.485Z,39.38055
2022-12-24T12:04:41.433Z,39.28127
2022-12-24T12:09:42.433Z,39.26929
2022-12-24T12:14:43.337Z,37.92589
2022-12-24T12:19:44.260Z,38.03629
2022-12-24T12:24:45.189Z,38.47154
2022-12-24T12:29:46.118Z,38.55457
2022-12-24T12:34:47.021Z,38.53745
2022-12-24T12:39:48.019Z,38.73638
2022-12-24T12:44:48.937Z,38.74243
2022-12-24T12:49:49.868Z,39.06993
2022-12-24T12:54:50.746Z,39.14586
2022-12-24T12:59:51.674Z,39.25125
2022-12-24T13:04:52.597Z,39.31537
2022-12-24T13:09:53.531Z,39.45541
2022-12-24T13:14:54.467Z,39.34994
2022-12-24T13:19:55.407Z,39.10405
2022-12-24T13:24:56.342Z,39.19756
2022-12-24T13:29:57.264Z,39.10392
2022-12-24T13:34:58.310Z,39.18529
2022-12-24T13:39:59.281Z,38.85748
2022-12-24T13:45:00.226Z,38.88061
2022-12-24T13:50:01.429Z,38.8517
2022-12-24T13:55:02.524Z,39.01017
2022-12-24T14:00:03.455Z,39.22061
2022-12-24T14:05:04.463Z,39.16202
2022-12-24T14:10:05.460Z,39.03359
2022-12-24T14:15:06.334Z,39.06312
2022-12-24T14:20:07.311Z,39.02818
2022-12-24T14:25:08.248Z,39.01076
2022-12-24T14:30:09.193Z,39.01685
2022-12-24T14:35:10.164Z,38.98792
2022-12-24T14:40:11.151Z,38.97055
2022-12-24T14:45:12.108Z,38.92981
2022-12-24T14:50:13.348Z,38.84255
2022-12-24T14:55:14.572Z,38.63875
2022-12-24T15:00:15.511Z,38.54029
2022-12-24T15:05:16.484Z,38.65166
2022-12-24T15:10:17.413Z,38.68127
2022-12-24T15:15:18.330Z,38.69919
2022-12-24T15:20:19.240Z,38.84542
2022-12-24T15:25:20.138Z,38.89228
2022-12-24T15:30:21.118Z,39.0675
2022-12-24T15:35:23.165Z,39.11419
2022-12-24T15:40:24.316Z,39.10859
2022-12-24T15:45:28.179Z,39.27176
2022-12-24T15:50:29.658Z,39.24277
2022-12-24T15:55:30.572Z,39.20212
2022-12-24T16:00:31.572Z,39.29534
2022-12-24T16:05:32.685Z,39.23129
2022-12-24T16:10:33.656Z,39.26053
2022-12-24T16:15:34.726Z,39.22576
2022-12-24T16:20:35.710Z,39.08637
2022-12-24T16:25:36.642Z,39.09252
2022-12-24T16:30:37.623Z,39.10438
2022-12-24T16:35:38.560Z,39.14531
2022-12-24T16:40:39.498Z,39.19784
2022-12-24T16:45:40.429Z,39.25609
2022-12-24T16:50:41.347Z,39.19816
2022-12-24T16:55:42.259Z,39.1983
2022-12-24T17:00:43.270Z,39.23913
2022-12-24T17:05:44.256Z,39.07666
2022-12-24T17:10:45.189Z,39.29739
2022-12-24T17:15:46.210Z,39.28585
2022-12-24T17:20:47.381Z,39.35551
2022-12-24T17:25:48.288Z,39.47157
2022-12-24T17:30:49.202Z,39.38429
2022-12-24T17:35:50.113Z,39.27388
2022-12-24T17:40:51.064Z,39.40178
2022-12-24T17:45:52.009Z,39.60508
2022-12-24T17:50:52.939Z,39.73275
2022-12-24T17:55:53.868Z,39.5816
2022-12-24T18:00:54.814Z,39.70941
2022-12-24T18:05:55.755Z,39.75004
2022-12-24T18:10:56.726Z,39.84887
2022-12-24T18:15:57.663Z,40.029
2022-12-24T18:20:58.627Z,40.01154
2022-12-24T18:25:59.541Z,40.1394
2022-12-24T18:31:00.569Z,40.23822
2022-12-24T18:36:01.540Z,40.29055
2022-12-24T18:41:02.528Z,40.36033
2022-12-24T18:46:03.418Z,40.35454
2022-12-24T18:51:04.385Z,40.25569
2022-12-24T18:56:05.317Z,40.41854
2022-12-24T19:01:06.381Z,40.41853
2022-12-24T19:06:07.487Z,40.69759
2022-12-24T19:11:08.436Z,40.80229
2022-12-24T19:16:09.407Z,40.7906
2022-12-24T19:21:10.389Z,40.92431
2022-12-24T19:26:11.412Z,40.84871
2022-12-24T19:31:12.412Z,40.92996
2022-12-24T19:36:13.701Z,40.98215
2022-12-24T19:41:14.942Z,41.06341
2022-12-24T19:46:15.931Z,41.03439
2022-12-24T19:51:17.143Z,40.98813
2022-12-24T19:56:18.100Z,40.78476
2022-12-24T20:01:19.417Z,40.77899
2022-12-24T20:06:20.572Z,40.84298
2022-12-24T20:11:21.532Z,40.58717
2022-12-24T20:16:22.492Z,40.62783
2022-12-24T20:21:23.499Z,40.65679
2022-12-24T20:26:24.540Z,40.70914
2022-12-24T20:31:25.681Z,40.56385
2022-12-24T20:36:26.659Z,40.47083
2022-12-24T20:41:27.589Z,40.56973
2022-12-24T20:46:28.815Z,40.47673
2022-12-24T20:51:29.984Z,40.30805
2022-12-24T20:56:31.125Z,40.5058
2022-12-24T21:01:32.372Z,40.34294
2022-12-24T21:06:33.422Z,40.33131
2022-12-24T21:11:34.372Z,40.25569
2022-12-24T21:16:35.427Z,40.31384
2022-12-24T21:21:36.491Z,40.1859
2022-12-24T21:26:37.442Z,40.29641
2022-12-24T21:31:38.433Z,40.18008
2022-12-24T21:36:39.623Z,40.29642
2022-12-24T21:41:40.592Z,40.21498
2022-12-24T21:46:41.557Z,40.1859
2022-12-24T21:51:42.488Z,40.1859
2022-12-24T21:56:43.440Z,40.19172
2022-12-24T22:01:44.494Z,40.21498
2022-12-24T22:06:45.595Z,40.26732
2022-12-24T22:11:51.791Z,40.39525
2022-12-24T22:16:55.296Z,40.34293
2022-12-24T22:21:56.251Z,40.19172
2022-12-24T22:26:57.243Z,40.29641
2022-12-24T22:31:58.119Z,40.26733
2022-12-24T22:36:59.075Z,40.26733
2022-12-24T22:42:00.052Z,40.16844
2022-12-24T22:47:01.110Z,40.13935
2022-12-24T22:52:02.151Z,40.01719
2022-12-24T22:57:03.137Z,40.01721
2022-12-24T23:02:04.286Z,40.11611
2022-12-24T23:07:05.326Z,39.96488
2022-12-24T23:12:06.264Z,39.93
2022-12-24T23:17:07.355Z,39.9475
2022-12-24T23:22:08.346Z,39.95332
2022-12-24T23:27:09.268Z,39.76147
2022-12-24T23:32:10.232Z,39.78477
2022-12-24T23:37:11.185Z,39.78481
2022-12-24T23:42:12.120Z,39.65118
2022-12-24T23:47:13.050Z,39.54665
2022-12-24T23:52:14.409Z,39.61073
2022-12-24T23:57:15.519Z,39.49462
